Time;durP1;ratioP1;P1;durP2;ratioP2;P2;SDS_P1;SDS_P2;PMS_P1;PMS_P2;Temp;Humidity;BMP_temperature;BMP_pressure;BME280_temperature;BME280_humidity;BME280_pressure;Samples;Min_cycle;Max_cycle;Signal;HPM_P1;HPM_P2
2021/03/03 00:01:45;;;;;;;9.77;6.13;;;11.70;99.90;;;;;;5053947;28;20041;-49
2021/03/03 00:04:12;;;;;;;10.63;6.53;;;11.70;99.90;;;;;;5054211;28;20128;-51
2021/03/03 00:06:40;;;;;;;12.52;7.72;;;11.60;99.90;;;;;;5053953;28;20119;-50
2021/03/03 00:09:07;;;;;;;16.45;7.20;;;11.60;99.90;;;;;;5055533;28;20132;-54
2021/03/03 00:11:34;;;;;;;12.48;7.53;;;11.60;99.90;;;;;;5037635;28;20487;-52
2021/03/03 00:14:02;;;;;;;13.93;6.75;;;11.60;99.90;;;;;;5053576;28;20102;-53
2021/03/03 00:16:29;;;;;;;9.40;6.93;;;11.60;99.90;;;;;;5054021;28;20052;-52
2021/03/03 00:18:57;;;;;;;14.05;7.35;;;11.60;99.90;;;;;;5053947;28;20045;-50
2021/03/03 00:21:25;;;;;;;11.88;6.93;;;11.60;99.90;;;;;;5053807;28;20044;-53
2021/03/03 00:23:52;;;;;;;14.40;7.75;;;11.60;99.90;;;;;;5053709;28;20130;-52
2021/03/03 00:26:20;;;;;;;11.95;7.35;;;11.50;99.90;;;;;;5053725;28;20053;-54
2021/03/03 00:28:47;;;;;;;10.43;6.78;;;11.60;99.90;;;;;;5053794;28;20045;-51
2021/03/03 00:31:15;;;;;;;13.27;7.38;;;11.60;99.90;;;;;;5054945;28;20060;-52
2021/03/03 00:33:42;;;;;;;12.07;6.20;;;11.60;99.90;;;;;;5054815;28;20388;-52
2021/03/03 00:36:09;;;;;;;10.55;7.13;;;11.60;99.90;;;;;;5053563;28;20200;-49
2021/03/03 00:38:37;;;;;;;15.20;7.10;;;11.60;99.90;;;;;;5036921;28;20128;-48
2021/03/03 00:41:04;;;;;;;17.50;7.47;;;11.60;99.90;;;;;;5036989;28;20484;-50
2021/03/03 00:43:32;;;;;;;11.48;7.03;;;11.50;99.90;;;;;;5052949;28;20041;-48
2021/03/03 00:46:00;;;;;;;10.18;6.32;;;11.50;99.90;;;;;;5053451;28;20053;-51
2021/03/03 00:48:28;;;;;;;11.10;6.07;;;11.50;99.90;;;;;;5053094;28;20551;-48
2021/03/03 00:50:56;;;;;;;11.13;6.85;;;11.40;99.90;;;;;;5053332;28;20380;-52
2021/03/03 00:53:24;;;;;;;11.57;7.03;;;11.40;99.90;;;;;;5036675;28;20075;-51
2021/03/03 00:55:53;;;;;;;11.88;6.45;;;11.40;99.90;;;;;;5052977;28;20145;-54
2021/03/03 00:58:27;;;;;;;24.30;7.28;;;11.50;99.90;;;;;;5053036;28;20048;-49
2021/03/03 01:00:59;;;;;;;12.32;7.90;;;11.40;99.90;;;;;;5053373;28;20083;-48
2021/03/03 01:03:31;;;;;;;11.77;7.43;;;11.40;99.90;;;;;;5053768;28;20063;-49
2021/03/03 01:06:26;;;;;;;11.68;7.43;;;11.30;99.90;;;;;;5052037;28;20057;-48
2021/03/03 01:08:54;;;;;;;9.50;6.47;;;11.20;99.90;;;;;;5036582;28;20055;-48
2021/03/03 01:11:22;;;;;;;11.65;6.63;;;11.20;99.90;;;;;;5036642;28;20049;-48
2021/03/03 01:13:57;;;;;;;11.23;6.47;;;11.20;99.90;;;;;;5052751;28;20064;-49
2021/03/03 01:16:26;;;;;;;9.82;5.43;;;11.20;99.90;;;;;;5052233;28;20060;-48
2021/03/03 01:19:02;;;;;;;11.43;5.80;;;11.20;99.90;;;;;;5053920;28;20454;-48
2021/03/03 01:21:29;;;;;;;13.35;6.82;;;11.20;99.90;;;;;;5052587;28;20135;-49
2021/03/03 01:23:56;;;;;;;11.20;7.25;;;11.20;99.90;;;;;;5052500;28;20114;-49
2021/03/03 01:26:24;;;;;;;15.27;8.18;;;11.10;99.90;;;;;;5052750;28;20037;-48
2021/03/03 01:28:51;;;;;;;15.60;9.40;;;11.00;99.90;;;;;;5053913;28;20064;-54
2021/03/03 01:31:18;;;;;;;12.57;7.00;;;11.00;99.90;;;;;;5052502;28;20049;-54
2021/03/03 01:33:46;;;;;;;10.82;6.55;;;11.00;99.90;;;;;;5052362;28;20406;-53
2021/03/03 01:36:13;;;;;;;10.13;6.65;;;10.90;99.90;;;;;;5035729;28;20045;-52
2021/03/03 01:38:40;;;;;;;11.10;6.82;;;10.90;99.90;;;;;;5054006;28;20053;-52
2021/03/03 01:41:07;;;;;;;10.00;6.25;;;10.80;99.90;;;;;;5052412;28;20429;-52
2021/03/03 01:43:35;;;;;;;11.15;6.78;;;10.80;99.90;;;;;;5051640;28;20041;-51
2021/03/03 01:46:02;;;;;;;11.32;6.65;;;10.70;99.90;;;;;;5052533;28;20076;-54
2021/03/03 01:48:29;;;;;;;13.68;7.10;;;10.70;99.90;;;;;;5052186;28;20052;-54
2021/03/03 01:50:58;;;;;;;11.90;6.78;;;10.70;99.90;;;;;;5052409;28;20045;-49
2021/03/03 01:53:25;;;;;;;10.55;7.18;;;10.60;99.90;;;;;;5051967;28;20132;-50
2021/03/03 01:55:56;;;;;;;11.63;7.10;;;10.60;99.90;;;;;;5052129;28;20055;-52
2021/03/03 01:58:27;;;;;;;12.63;7.20;;;10.60;99.90;;;;;;5053404;28;20056;-48
2021/03/03 02:00:58;;;;;;;10.90;6.30;;;10.60;99.90;;;;;;5051998;28;20049;-50
2021/03/03 02:03:28;;;;;;;13.63;6.72;;;10.60;99.90;;;;;;5053155;28;20399;-52
2021/03/03 02:06:04;;;;;;;10.32;6.97;;;10.60;99.90;;;;;;5035993;28;20045;-48
2021/03/03 02:08:39;;;;;;;10.52;6.97;;;10.50;99.90;;;;;;5052313;28;20045;-48
2021/03/03 02:11:21;;;;;;;11.10;6.93;;;10.50;99.90;;;;;;5052172;28;20049;-48
2021/03/03 02:14:06;;;;;;;10.50;6.80;;;10.50;99.90;;;;;;5036855;28;20450;-49
2021/03/03 02:16:36;;;;;;;10.05;6.93;;;10.50;99.90;;;;;;5052120;28;20048;-48
2021/03/03 02:19:05;;;;;;;9.30;6.22;;;10.50;99.90;;;;;;5035418;28;20048;-50
2021/03/03 02:21:39;;;;;;;11.20;6.97;;;10.50;99.90;;;;;;5035793;28;20072;-48
2021/03/03 02:24:08;;;;;;;10.10;7.45;;;10.50;99.90;;;;;;5053016;28;20118;-48
2021/03/03 02:26:41;;;;;;;11.70;7.40;;;10.60;99.90;;;;;;5051864;28;20119;-48
2021/03/03 02:29:11;;;;;;;18.65;7.75;;;10.60;99.90;;;;;;5053578;28;20052;-48
2021/03/03 02:31:40;;;;;;;12.52;7.70;;;10.60;99.90;;;;;;5068231;28;20503;-48
2021/03/03 02:34:13;;;;;;;12.10;6.68;;;10.60;99.90;;;;;;5053189;28;20491;-48
2021/03/03 02:36:44;;;;;;;16.48;8.07;;;10.60;99.90;;;;;;5051731;28;20053;-49
2021/03/03 02:39:12;;;;;;;12.13;7.78;;;10.60;99.90;;;;;;5035292;28;20041;-48
2021/03/03 02:41:41;;;;;;;14.88;7.82;;;10.60;99.90;;;;;;5051885;28;20061;-47
2021/03/03 02:44:12;;;;;;;11.02;7.38;;;10.60;99.90;;;;;;5053077;28;20041;-49
2021/03/03 02:46:43;;;;;;;28.13;8.73;;;10.60;99.90;;;;;;5052036;28;20052;-47
2021/03/03 02:49:19;;;;;;;11.20;7.28;;;10.70;99.90;;;;;;5051820;28;20415;-53
2021/03/03 02:51:54;;;;;;;14.45;7.22;;;10.70;99.90;;;;;;5035613;28;20052;-54
2021/03/03 02:54:21;;;;;;;12.48;8.05;;;10.60;99.90;;;;;;5035324;28;20041;-50
2021/03/03 02:56:48;;;;;;;10.45;7.20;;;10.60;99.90;;;;;;5035348;28;20049;-50
2021/03/03 02:59:27;;;;;;;10.85;6.80;;;10.60;99.90;;;;;;5051753;28;20045;-53
2021/03/03 03:02:03;;;;;;;11.80;7.25;;;10.60;99.90;;;;;;5051529;28;20076;-54
2021/03/03 03:04:38;;;;;;;12.00;7.57;;;10.60;99.90;;;;;;5051706;28;20049;-47
2021/03/03 03:07:11;;;;;;;15.50;7.78;;;10.50;99.90;;;;;;5038280;28;20044;-51
2021/03/03 03:09:40;;;;;;;12.68;7.25;;;10.60;99.90;;;;;;5055281;28;20053;-48
2021/03/03 03:12:09;;;;;;;13.50;8.55;;;10.50;99.90;;;;;;5038635;28;20041;-50
2021/03/03 03:14:37;;;;;;;12.00;7.53;;;10.50;99.90;;;;;;5038435;28;20585;-50
2021/03/03 03:17:07;;;;;;;16.17;7.63;;;10.50;99.90;;;;;;5055162;28;20388;-48
2021/03/03 03:19:38;;;;;;;13.13;7.68;;;10.50;99.90;;;;;;5038634;28;20049;-48
2021/03/03 03:22:08;;;;;;;11.55;7.70;;;10.50;99.90;;;;;;5038588;28;20521;-54
2021/03/03 03:24:38;;;;;;;11.30;6.43;;;10.50;99.90;;;;;;5055974;28;20063;-54
2021/03/03 03:27:07;;;;;;;10.77;7.22;;;10.50;99.90;;;;;;5038140;28;20045;-53
2021/03/03 03:29:39;;;;;;;10.63;7.05;;;10.60;99.90;;;;;;5054775;28;20422;-50
2021/03/03 03:32:18;;;;;;;12.95;7.95;;;10.50;99.90;;;;;;5056110;28;20139;-49
2021/03/03 03:34:46;;;;;;;9.32;6.78;;;10.60;99.90;;;;;;5038341;28;20053;-49
2021/03/03 03:37:18;;;;;;;10.23;6.68;;;10.60;99.90;;;;;;5038482;28;20506;-51
2021/03/03 03:39:45;;;;;;;11.85;6.90;;;10.50;99.90;;;;;;5054584;28;20562;-48
2021/03/03 03:42:15;;;;;;;11.00;7.22;;;10.50;99.90;;;;;;5054788;28;20140;-48
2021/03/03 03:44:44;;;;;;;13.65;7.72;;;10.50;99.90;;;;;;5054377;28;20564;-47
2021/03/03 03:47:15;;;;;;;13.25;7.13;;;10.50;99.90;;;;;;5054758;28;20056;-49
2021/03/03 03:49:47;;;;;;;10.82;7.82;;;10.50;99.90;;;;;;5054595;28;20056;-47
2021/03/03 03:52:19;;;;;;;14.23;8.00;;;10.50;99.90;;;;;;5037731;28;20045;-48
2021/03/03 03:54:50;;;;;;;11.75;6.13;;;10.40;99.90;;;;;;5055760;28;20088;-48
2021/03/03 03:57:21;;;;;;;11.93;8.10;;;10.40;99.90;;;;;;5054375;28;20087;-49
2021/03/03 03:59:48;;;;;;;11.57;7.70;;;10.40;99.90;;;;;;5054400;28;20045;-47
2021/03/03 04:02:17;;;;;;;13.43;7.90;;;10.40;99.90;;;;;;5037822;28;20122;-49
2021/03/03 04:04:44;;;;;;;11.70;7.55;;;10.50;99.90;;;;;;5054004;28;20123;-48
2021/03/03 04:07:12;;;;;;;15.77;6.80;;;10.50;99.90;;;;;;5037566;28;20099;-48
2021/03/03 04:09:39;;;;;;;14.68;8.10;;;10.40;99.90;;;;;;5053942;28;20513;-54
2021/03/03 04:12:07;;;;;;;13.10;9.38;;;10.40;99.90;;;;;;5054120;28;20052;-53
2021/03/03 04:14:37;;;;;;;12.95;8.20;;;10.40;99.90;;;;;;5053838;28;20056;-50
2021/03/03 04:17:04;;;;;;;11.38;7.53;;;10.40;99.90;;;;;;5052971;28;20049;-51
2021/03/03 04:19:32;;;;;;;22.55;8.80;;;10.30;99.90;;;;;;5055062;28;20045;-49
2021/03/03 04:21:59;;;;;;;15.00;7.45;;;10.40;99.90;;;;;;5053739;28;20040;-49
2021/03/03 04:24:26;;;;;;;19.10;8.77;;;10.30;99.90;;;;;;5053791;28;20127;-52
2021/03/03 04:26:54;;;;;;;13.50;7.65;;;10.30;99.90;;;;;;5054938;28;20053;-51
2021/03/03 04:29:21;;;;;;;12.95;7.60;;;10.30;99.90;;;;;;5053691;28;20084;-53
2021/03/03 04:31:48;;;;;;;11.32;7.32;;;10.30;99.90;;;;;;5054677;28;20053;-52
2021/03/03 04:34:16;;;;;;;13.82;7.68;;;10.30;99.90;;;;;;5037465;28;20049;-48
2021/03/03 04:36:43;;;;;;;14.48;8.40;;;10.30;99.90;;;;;;5054521;28;20395;-52
2021/03/03 04:39:11;;;;;;;11.20;8.05;;;10.30;99.90;;;;;;5053519;28;20045;-51
2021/03/03 04:41:38;;;;;;;13.93;7.85;;;10.30;99.90;;;;;;5037172;28;20060;-51
2021/03/03 04:44:08;;;;;;;12.48;6.70;;;10.30;99.90;;;;;;5054711;28;20049;-48
2021/03/03 04:46:35;;;;;;;12.45;8.20;;;10.30;99.90;;;;;;5037311;28;20049;-47
2021/03/03 04:49:02;;;;;;;16.58;6.97;;;10.30;99.90;;;;;;5053347;28;20506;-50
2021/03/03 04:51:29;;;;;;;14.20;7.82;;;10.30;99.90;;;;;;5054554;28;20045;-48
2021/03/03 04:53:57;;;;;;;13.15;7.53;;;10.30;99.90;;;;;;5053324;28;20138;-51
2021/03/03 04:56:24;;;;;;;13.10;7.85;;;10.30;99.90;;;;;;5053170;28;20136;-49
2021/03/03 04:58:56;;;;;;;19.83;9.82;;;10.20;99.90;;;;;;5053146;28;20498;-48
2021/03/03 05:01:23;;;;;;;9.80;7.45;;;10.20;99.90;;;;;;5036430;28;20122;-53
2021/03/03 05:03:51;;;;;;;12.05;7.97;;;10.20;99.90;;;;;;5054188;28;20076;-49
2021/03/03 05:06:18;;;;;;;10.57;7.45;;;10.20;99.90;;;;;;5052899;28;20068;-49
2021/03/03 05:08:45;;;;;;;12.57;7.95;;;10.20;99.90;;;;;;5052999;28;20052;-47
2021/03/03 05:11:15;;;;;;;14.18;7.75;;;10.20;99.90;;;;;;5052589;28;20211;-47
2021/03/03 05:13:48;;;;;;;10.85;7.38;;;10.20;99.90;;;;;;5035978;28;20041;-50
2021/03/03 05:16:15;;;;;;;13.57;7.97;;;10.20;99.90;;;;;;5036550;28;20127;-49
2021/03/03 05:18:43;;;;;;;11.55;7.43;;;10.20;99.90;;;;;;5052676;28;20049;-47
2021/03/03 05:21:11;;;;;;;9.98;7.30;;;10.20;99.90;;;;;;5052796;28;20047;-47
2021/03/03 05:23:40;;;;;;;11.50;7.00;;;10.20;99.90;;;;;;5052729;28;20080;-47
2021/03/03 05:26:07;;;;;;;13.18;8.23;;;10.20;99.90;;;;;;5052507;28;20045;-47
2021/03/03 05:28:35;;;;;;;12.93;8.13;;;10.30;99.90;;;;;;5053456;28;20049;-54
2021/03/03 05:31:02;;;;;;;14.45;8.02;;;10.30;99.90;;;;;;5052574;28;20060;-54
2021/03/03 05:33:35;;;;;;;14.15;7.75;;;10.30;99.90;;;;;;5053603;28;20049;-54
2021/03/03 05:36:05;;;;;;;13.60;7.97;;;10.30;99.90;;;;;;5053916;28;20079;-54
2021/03/03 05:38:33;;;;;;;12.77;8.05;;;10.40;99.90;;;;;;5035970;28;20080;-50
2021/03/03 05:41:01;;;;;;;15.60;9.10;;;10.50;99.90;;;;;;5035763;28;20055;-53
2021/03/03 05:43:30;;;;;;;11.02;7.85;;;10.70;99.90;;;;;;5052299;28;20044;-52
2021/03/03 05:45:59;;;;;;;13.20;8.98;;;10.80;99.90;;;;;;5053380;28;20056;-53
2021/03/03 05:48:31;;;;;;;11.77;7.93;;;11.00;99.90;;;;;;5053312;28;20053;-54
2021/03/03 05:51:04;;;;;;;15.18;8.32;;;11.20;99.90;;;;;;5053574;28;20053;-50
2021/03/03 05:53:34;;;;;;;16.35;9.75;;;11.40;99.90;;;;;;5053392;28;20049;-48
2021/03/03 05:56:13;;;;;;;13.10;7.07;;;11.60;99.90;;;;;;5053333;28;20051;-52
2021/03/03 05:59:01;;;;;;;11.43;7.05;;;11.80;99.90;;;;;;5038965;28;20053;-49
2021/03/03 06:01:29;;;;;;;16.75;9.07;;;12.00;99.90;;;;;;5053327;28;20057;-48
2021/03/03 06:04:06;;;;;;;11.70;7.53;;;12.20;99.90;;;;;;5052395;28;20577;-48
2021/03/03 06:06:33;;;;;;;11.27;7.15;;;12.50;99.90;;;;;;5052122;28;20135;-48
2021/03/03 06:09:00;;;;;;;12.80;8.60;;;12.70;99.90;;;;;;5053232;28;20087;-49
2021/03/03 06:11:28;;;;;;;17.17;9.55;;;12.90;99.90;;;;;;5051999;28;20064;-49
2021/03/03 06:13:59;;;;;;;13.15;8.20;;;13.10;99.90;;;;;;5051966;28;20085;-48
2021/03/03 06:16:27;;;;;;;11.48;7.25;;;13.30;99.90;;;;;;5052129;28;20052;-48
2021/03/03 06:18:55;;;;;;;12.57;8.40;;;13.40;99.90;;;;;;5052373;28;20045;-49
2021/03/03 06:21:31;;;;;;;17.27;9.87;;;13.60;99.90;;;;;;5052264;28;20090;-49
2021/03/03 06:24:00;;;;;;;15.25;8.50;;;13.80;99.90;;;;;;5053175;28;20071;-49
2021/03/03 06:26:27;;;;;;;13.38;7.25;;;14.00;99.90;;;;;;5035334;28;20060;-48
2021/03/03 06:28:55;;;;;;;14.73;7.82;;;14.20;99.90;;;;;;5052010;28;20509;-48
2021/03/03 06:31:38;;;;;;;16.27;8.70;;;14.30;99.90;;;;;;5052969;28;20045;-49
2021/03/03 06:34:14;;;;;;;12.60;7.40;;;14.50;99.90;;;;;;5053021;28;20503;-50
2021/03/03 06:36:47;;;;;;;10.68;7.13;;;14.70;99.90;;;;;;5035728;28;20061;-48
2021/03/03 06:39:28;;;;;;;15.38;8.88;;;14.90;99.90;;;;;;5052047;28;20514;-50
2021/03/03 06:42:06;;;;;;;15.45;9.35;;;15.10;99.90;;;;;;5055117;28;20061;-48
2021/03/03 06:44:51;;;;;;;14.10;8.02;;;15.40;99.90;;;;;;5039178;28;20132;-48
2021/03/03 06:47:19;;;;;;;14.60;8.52;;;15.70;99.90;;;;;;5039267;28;20053;-48
2021/03/03 06:49:49;;;;;;;14.10;7.50;;;16.00;99.90;;;;;;5055804;28;20056;-54
2021/03/03 06:52:16;;;;;;;12.95;7.15;;;16.30;99.90;;;;;;5039216;28;20436;-54
2021/03/03 06:54:45;;;;;;;15.25;8.05;;;16.60;99.30;;;;;;5055473;28;20052;-52
2021/03/03 06:57:15;;;;;;;15.02;7.78;;;16.90;99.00;;;;;;5055359;28;20051;-54
2021/03/03 06:59:44;;;;;;;11.73;7.60;;;17.20;98.40;;;;;;5055475;28;20045;-53
2021/03/03 07:02:15;;;;;;;14.07;7.32;;;17.40;98.20;;;;;;5055451;28;20057;-51
2021/03/03 07:04:56;;;;;;;13.18;7.80;;;17.50;97.90;;;;;;5055299;28;20045;-51
2021/03/03 07:07:25;;;;;;;14.50;7.72;;;17.60;97.80;;;;;;5056393;28;20060;-52
2021/03/03 07:10:00;;;;;;;11.43;8.43;;;17.60;97.60;;;;;;5055413;28;20124;-50
2021/03/03 07:12:30;;;;;;;14.82;7.28;;;17.60;97.60;;;;;;5038583;28;20040;-52
2021/03/03 07:14:59;;;;;;;13.40;7.40;;;17.60;97.70;;;;;;5055610;28;20503;-53
2021/03/03 07:17:38;;;;;;;14.02;8.32;;;17.70;97.70;;;;;;5037390;28;20099;-50
2021/03/03 07:20:16;;;;;;;10.32;7.00;;;17.90;97.50;;;;;;5055303;28;20048;-53
2021/03/03 07:22:48;;;;;;;10.55;7.22;;;17.90;97.00;;;;;;5053784;28;20041;-51
2021/03/03 07:25:19;;;;;;;14.38;7.28;;;18.00;97.00;;;;;;5037160;28;20422;-52
2021/03/03 07:27:53;;;;;;;12.82;6.65;;;18.00;97.00;;;;;;5054989;28;20487;-53
2021/03/03 07:30:24;;;;;;;10.88;7.10;;;17.90;96.90;;;;;;5055066;28;20049;-52
2021/03/03 07:32:53;;;;;;;12.30;7.78;;;18.00;97.00;;;;;;5053559;28;20400;-53
2021/03/03 07:35:29;;;;;;;12.27;7.70;;;17.80;97.00;;;;;;5053902;28;20053;-53
2021/03/03 07:37:59;;;;;;;15.15;7.63;;;17.80;97.20;;;;;;5037115;28;20056;-51
2021/03/03 07:40:31;;;;;;;12.93;6.97;;;17.90;97.20;;;;;;5054586;28;20041;-52
2021/03/03 07:43:04;;;;;;;13.07;7.93;;;17.90;97.10;;;;;;5053480;28;20144;-52
2021/03/03 07:45:38;;;;;;;12.88;7.63;;;18.00;97.00;;;;;;5053361;28;20140;-51
2021/03/03 07:48:11;;;;;;;17.90;7.15;;;18.00;97.00;;;;;;5053361;28;20044;-50
2021/03/03 07:50:43;;;;;;;12.65;7.57;;;18.20;96.80;;;;;;5037254;28;20052;-53
2021/03/03 07:53:15;;;;;;;10.68;6.90;;;18.20;96.80;;;;;;5053277;28;20052;-53
2021/03/03 07:55:44;;;;;;;11.52;6.43;;;18.20;96.80;;;;;;5053357;28;20499;-53
2021/03/03 07:58:13;;;;;;;11.15;6.30;;;18.20;96.90;;;;;;5053141;28;20053;-52
2021/03/03 08:00:43;;;;;;;12.68;7.22;;;18.20;97.00;;;;;;5052908;28;20669;-51
2021/03/03 08:03:11;;;;;;;14.98;7.18;;;18.00;97.00;;;;;;5053251;28;20147;-52
2021/03/03 08:05:52;;;;;;;8.23;6.20;;;18.00;97.30;;;;;;5038368;28;20049;-52
2021/03/03 08:08:23;;;;;;;11.55;5.85;;;17.90;97.20;;;;;;5036850;28;20079;-52
2021/03/03 08:10:59;;;;;;;15.50;5.30;;;17.90;97.10;;;;;;5053098;28;20049;-50
2021/03/03 08:16:09;;;;;;;9.63;5.07;;;17.60;97.30;;;;;;5131981;27;20353;-52
2021/03/03 08:18:49;;;;;;;8.63;4.47;;;17.30;97.90;;;;;;5097306;28;20071;-52
2021/03/03 08:21:16;;;;;;;8.05;5.00;;;17.20;98.30;;;;;;5096782;28;20047;-53
2021/03/03 08:23:47;;;;;;;8.73;4.63;;;17.20;98.50;;;;;;5131608;28;20047;-51
2021/03/03 08:26:15;;;;;;;12.68;5.50;;;17.20;98.50;;;;;;5113634;28;20039;-53
2021/03/03 08:28:47;;;;;;;9.57;5.07;;;17.10;98.30;;;;;;5096556;28;20046;-52
2021/03/03 08:31:21;;;;;;;8.95;4.80;;;17.10;98.40;;;;;;5131771;28;20071;-53
2021/03/03 08:33:52;;;;;;;9.93;4.40;;;17.10;98.60;;;;;;5096374;28;20128;-53
2021/03/03 08:36:25;;;;;;;6.75;4.60;;;17.00;98.40;;;;;;5113501;28;20120;-49
2021/03/03 08:38:55;;;;;;;6.88;3.55;;;17.10;98.20;;;;;;5112957;28;20047;-52
2021/03/03 08:41:26;;;;;;;7.05;4.60;;;17.20;98.10;;;;;;5079405;28;20065;-51
2021/03/03 08:44:10;;;;;;;8.85;5.82;;;17.50;98.00;;;;;;5097029;28;20047;-51
2021/03/03 08:46:45;;;;;;;8.23;4.95;;;17.60;97.90;;;;;;5130405;28;20044;-50
2021/03/03 08:49:13;;;;;;;8.70;3.95;;;17.90;97.60;;;;;;5131135;28;20058;-50
2021/03/03 08:51:45;;;;;;;12.02;4.10;;;17.90;97.30;;;;;;5130812;28;20100;-52
2021/03/03 08:54:18;;;;;;;7.28;4.53;;;17.90;96.70;;;;;;5096017;28;20053;-51
2021/03/03 08:56:48;;;;;;;9.45;4.05;;;18.10;97.10;;;;;;5130895;28;20088;-52
2021/03/03 08:59:28;;;;;;;7.18;4.32;;;18.20;97.10;;;;;;5112518;27;20040;-51
2021/03/03 09:02:09;;;;;;;8.23;4.95;;;18.20;96.50;;;;;;5097793;28;20101;-50
2021/03/03 09:04:43;;;;;;;8.32;4.47;;;18.10;96.80;;;;;;5092157;28;20048;-52
2021/03/03 09:07:29;;;;;;;6.15;4.78;;;18.40;97.00;;;;;;5092179;28;20044;-49
2021/03/03 09:10:10;;;;;;;8.85;5.25;;;18.30;96.80;;;;;;5075465;28;20379;-49
2021/03/03 09:12:40;;;;;;;7.45;4.18;;;18.50;96.80;;;;;;5110020;28;20052;-48
2021/03/03 09:15:15;;;;;;;9.02;4.80;;;18.40;96.40;;;;;;5078082;28;20060;-49
2021/03/03 09:17:46;;;;;;;8.77;4.70;;;18.40;96.30;;;;;;5069279;28;20044;-48
2021/03/03 09:20:18;;;;;;;10.80;4.85;;;18.50;96.30;;;;;;5051560;28;20045;-48
2021/03/03 09:22:47;;;;;;;8.93;5.18;;;18.40;96.10;;;;;;5067968;28;20072;-49
2021/03/03 09:25:20;;;;;;;10.43;4.78;;;18.20;96.60;;;;;;5067488;28;20431;-50
2021/03/03 09:27:56;;;;;;;8.80;5.20;;;18.00;96.80;;;;;;5054612;28;20282;-52
2021/03/03 09:30:37;;;;;;;10.82;5.00;;;18.10;96.90;;;;;;5054708;28;20080;-54
2021/03/03 09:33:06;;;;;;;11.32;6.43;;;18.00;96.80;;;;;;5055866;28;20053;-50
2021/03/03 09:35:37;;;;;;;18.33;11.00;;;18.10;96.60;;;;;;5037947;28;20051;-51
2021/03/03 09:38:10;;;;;;;15.77;10.82;;;18.00;96.20;;;;;;5038336;28;20140;-51
2021/03/03 09:40:38;;;;;;;14.82;9.63;;;18.10;95.50;;;;;;5055829;28;20130;-50
2021/03/03 09:43:06;;;;;;;12.10;6.45;;;18.20;95.60;;;;;;5038094;28;20072;-50
2021/03/03 09:45:36;;;;;;;10.13;5.60;;;18.40;95.80;;;;;;5054357;28;20513;-52
2021/03/03 09:48:13;;;;;;;9.02;5.25;;;18.60;95.60;;;;;;5038187;28;20513;-50
2021/03/03 09:50:41;;;;;;;15.40;7.10;;;18.70;94.20;;;;;;5055683;28;20061;-52
2021/03/03 09:53:10;;;;;;;9.70;4.72;;;18.70;94.50;;;;;;5038084;28;20067;-51
2021/03/03 09:55:38;;;;;;;7.72;3.35;;;18.40;94.50;;;;;;5054148;28;20067;-53
2021/03/03 09:58:06;;;;;;;7.93;4.63;;;18.30;94.90;;;;;;5037682;28;20068;-54
2021/03/03 10:00:40;;;;;;;6.60;4.40;;;18.40;94.60;;;;;;5054009;28;20482;-53
2021/03/03 10:03:14;;;;;;;12.18;4.63;;;18.50;94.40;;;;;;5053975;28;20487;-52
2021/03/03 10:05:55;;;;;;;8.25;5.45;;;18.50;94.50;;;;;;5054058;28;20064;-53
2021/03/03 10:08:26;;;;;;;7.00;3.58;;;18.70;94.80;;;;;;5055191;28;20132;-54
2021/03/03 10:10:57;;;;;;;7.50;4.03;;;18.90;93.90;;;;;;5055262;28;20049;-54
2021/03/03 10:13:27;;;;;;;4.82;3.92;;;18.90;93.80;;;;;;5055004;28;20538;-53
2021/03/03 10:15:56;;;;;;;9.85;5.45;;;18.80;93.80;;;;;;5053613;28;20491;-55
2021/03/03 10:18:24;;;;;;;8.82;4.80;;;18.80;93.70;;;;;;5053946;28;20084;-54
2021/03/03 10:20:57;;;;;;;8.40;5.35;;;18.80;94.00;;;;;;5053819;28;20052;-54
2021/03/03 10:23:48;;;;;;;8.38;5.45;;;18.80;94.30;;;;;;5053827;28;20061;-56
2021/03/03 10:26:15;;;;;;;10.15;4.47;;;18.60;94.50;;;;;;5053592;28;20056;-54
2021/03/03 10:28:43;;;;;;;9.50;4.15;;;18.40;94.30;;;;;;5053648;28;20053;-54
2021/03/03 10:31:19;;;;;;;10.30;5.82;;;18.40;94.70;;;;;;5053629;28;20057;-52
2021/03/03 10:33:49;;;;;;;9.23;5.75;;;18.40;94.80;;;;;;5053444;28;20075;-51
2021/03/03 10:36:20;;;;;;;13.68;6.75;;;18.40;94.40;;;;;;5053413;28;20052;-54
2021/03/03 10:38:51;;;;;;;10.57;6.97;;;18.30;94.60;;;;;;5053850;28;20131;-53
2021/03/03 10:41:33;;;;;;;7.55;4.88;;;18.50;94.30;;;;;;5037538;28;20083;-51
2021/03/03 10:44:07;;;;;;;10.18;5.50;;;18.60;94.70;;;;;;5054532;28;20041;-53
2021/03/03 10:46:44;;;;;;;9.02;4.93;;;18.50;95.20;;;;;;5036875;28;20499;-50
2021/03/03 10:49:14;;;;;;;6.55;4.18;;;18.40;94.70;;;;;;5053134;28;20057;-53
2021/03/03 10:51:42;;;;;;;6.47;4.80;;;18.50;94.60;;;;;;5054148;28;20256;-52
2021/03/03 10:54:11;;;;;;;9.20;5.03;;;18.50;94.20;;;;;;5054113;28;20045;-50
2021/03/03 10:56:43;;;;;;;9.57;4.95;;;18.50;94.20;;;;;;5037226;28;20187;-52
2021/03/03 10:59:23;;;;;;;6.68;4.43;;;18.50;93.60;;;;;;5053238;28;20052;-50
2021/03/03 11:01:59;;;;;;;9.88;4.95;;;18.30;94.60;;;;;;5036409;28;20049;-49
2021/03/03 11:04:44;;;;;;;11.15;4.97;;;18.20;94.40;;;;;;5036495;28;20045;-52
2021/03/03 11:07:16;;;;;;;8.60;5.05;;;18.50;94.20;;;;;;5054090;28;20045;-52
2021/03/03 11:09:52;;;;;;;8.35;4.00;;;18.60;93.70;;;;;;5053959;28;20146;-52
2021/03/03 11:12:24;;;;;;;7.30;4.47;;;18.80;93.80;;;;;;5052723;28;20167;-53
2021/03/03 11:14:52;;;;;;;8.27;4.25;;;18.80;94.30;;;;;;5036061;28;20474;-50
2021/03/03 11:17:20;;;;;;;8.90;5.80;;;18.90;93.70;;;;;;5036276;28;20491;-52
2021/03/03 11:19:48;;;;;;;6.65;4.97;;;18.70;94.10;;;;;;5036141;28;20457;-52
2021/03/03 11:22:16;;;;;;;7.90;5.15;;;18.70;94.40;;;;;;5036018;28;20598;-50
2021/03/03 11:24:44;;;;;;;10.93;5.90;;;18.60;94.40;;;;;;5036053;28;20081;-50
2021/03/03 11:27:12;;;;;;;7.47;5.30;;;18.70;93.70;;;;;;5052597;28;20387;-53
2021/03/03 11:29:43;;;;;;;8.38;4.82;;;18.70;93.50;;;;;;5053676;28;20056;-51
2021/03/03 11:32:13;;;;;;;7.95;4.18;;;18.80;93.80;;;;;;5036372;28;20048;-52
2021/03/03 11:34:41;;;;;;;10.98;4.40;;;18.70;94.20;;;;;;5035465;28;20055;-50
2021/03/03 11:37:13;;;;;;;8.43;5.57;;;18.50;94.00;;;;;;5036384;28;20048;-53
2021/03/03 11:39:42;;;;;;;10.38;5.55;;;18.50;94.20;;;;;;5035973;28;20056;-51
2021/03/03 11:42:11;;;;;;;10.32;5.43;;;18.40;94.70;;;;;;5052202;28;20059;-51
2021/03/03 11:44:38;;;;;;;8.20;5.47;;;18.30;94.40;;;;;;5053261;28;20399;-51
2021/03/03 11:47:06;;;;;;;6.90;4.28;;;18.20;94.40;;;;;;5035587;28;20406;-53
2021/03/03 11:49:34;;;;;;;7.88;4.15;;;18.30;94.00;;;;;;5051777;28;20084;-52
2021/03/03 11:52:03;;;;;;;10.18;5.60;;;18.20;94.60;;;;;;5052198;28;20045;-53
2021/03/03 11:54:31;;;;;;;6.78;4.03;;;18.20;94.60;;;;;;5052012;28;20368;-52
2021/03/03 11:56:59;;;;;;;7.60;4.40;;;18.30;94.50;;;;;;5068598;28;20068;-53
2021/03/03 11:59:28;;;;;;;8.30;4.80;;;18.10;94.50;;;;;;5052344;28;20051;-52
2021/03/03 12:01:58;;;;;;;6.07;4.00;;;18.10;94.20;;;;;;5035755;28;20041;-53
2021/03/03 12:04:25;;;;;;;11.13;5.18;;;18.10;94.00;;;;;;5052322;28;20147;-53
2021/03/03 12:06:53;;;;;;;7.13;3.97;;;18.20;94.40;;;;;;5068743;28;20049;-52
2021/03/03 12:09:21;;;;;;;8.85;5.22;;;18.20;94.60;;;;;;5052234;28;20487;-53
2021/03/03 12:11:48;;;;;;;8.90;4.35;;;18.30;94.30;;;;;;5068734;28;20037;-52
2021/03/03 12:14:16;;;;;;;7.35;4.13;;;18.40;94.50;;;;;;5058185;28;20045;-53
2021/03/03 12:16:45;;;;;;;8.00;4.60;;;18.30;94.50;;;;;;5075760;28;20394;-53
2021/03/03 12:19:13;;;;;;;11.02;4.72;;;18.30;94.50;;;;;;5042500;28;20048;-50
2021/03/03 12:21:40;;;;;;;8.25;4.13;;;18.30;94.50;;;;;;5075499;28;20086;-52
2021/03/03 12:24:08;;;;;;;5.95;4.68;;;18.10;94.40;;;;;;5075676;28;20055;-53
2021/03/03 12:26:37;;;;;;;8.18;4.57;;;18.10;94.50;;;;;;5075728;28;20056;-48
2021/03/03 12:29:05;;;;;;;7.05;4.78;;;18.10;94.20;;;;;;5093743;28;20048;-54
2021/03/03 12:31:33;;;;;;;9.60;5.45;;;18.10;94.20;;;;;;5042194;28;20139;-54
2021/03/03 12:34:02;;;;;;;8.85;5.65;;;18.10;94.10;;;;;;5059010;28;20048;-53
2021/03/03 12:36:29;;;;;;;11.20;5.78;;;18.10;94.10;;;;;;5058884;28;20097;-54
2021/03/03 12:38:57;;;;;;;9.55;5.00;;;18.20;94.00;;;;;;5075549;28;20052;-49
2021/03/03 12:41:25;;;;;;;9.15;5.63;;;18.10;94.20;;;;;;5093153;28;20124;-53
2021/03/03 12:43:53;;;;;;;11.20;5.88;;;18.10;94.00;;;;;;5075177;28;20131;-49
2021/03/03 12:46:21;;;;;;;8.98;5.03;;;18.00;94.20;;;;;;5058901;28;20050;-53
2021/03/03 12:48:48;;;;;;;10.60;4.55;;;17.90;94.70;;;;;;5093179;28;20048;-51
2021/03/03 12:51:19;;;;;;;7.45;5.47;;;17.80;94.70;;;;;;5075249;28;20140;-52
2021/03/03 12:53:46;;;;;;;20.30;6.28;;;17.70;94.70;;;;;;5093287;28;20080;-49
2021/03/03 12:56:14;;;;;;;7.50;4.68;;;17.80;95.10;;;;;;5093133;28;20048;-51
2021/03/03 12:58:42;;;;;;;7.97;4.72;;;17.70;95.00;;;;;;5075366;28;20052;-53
2021/03/03 13:01:09;;;;;;;9.00;4.68;;;17.70;94.80;;;;;;5059420;28;20213;-49